createdAt,value
2018-05-06T00:01:52.020Z,17.80
2018-05-06T00:06:57.422Z,19.08
2018-05-06T00:12:00.755Z,21.87
2018-05-06T00:17:04.190Z,17.12
2018-05-06T00:22:07.638Z,19.85
2018-05-06T00:27:11.333Z,18.55
2018-05-06T00:32:14.600Z,22.17
2018-05-06T00:37:18.368Z,18.58
2018-05-06T00:42:23.279Z,17.83
2018-05-06T00:53:01.236Z,18.85
2018-05-06T00:58:04.635Z,16.37
2018-05-06T01:03:08.922Z,17.42
2018-05-06T01:08:12.272Z,15.50
2018-05-06T01:13:15.578Z,18.33
2018-05-06T01:18:19.213Z,18.05
2018-05-06T01:23:22.472Z,18.20
2018-05-06T01:28:25.732Z,19.42
2018-05-06T01:33:28.942Z,19.70
2018-05-06T01:38:32.414Z,21.00
2018-05-06T01:43:36.063Z,18.67
2018-05-06T01:48:39.402Z,21.20
2018-05-06T01:53:42.881Z,20.17
2018-05-06T01:58:46.360Z,20.95
2018-05-06T02:03:49.581Z,19.67
2018-05-06T02:08:55.149Z,19.87
2018-05-06T02:13:58.408Z,20.35
2018-05-06T02:19:01.845Z,17.95
2018-05-06T02:24:06.057Z,18.23
2018-05-06T02:29:09.286Z,18.60
2018-05-06T02:34:12.924Z,21.77
2018-05-06T02:39:17.125Z,18.60
2018-05-06T02:44:20.991Z,22.33
2018-05-06T02:49:24.455Z,19.95
2018-05-06T02:54:27.867Z,23.85
2018-05-06T02:59:31.524Z,20.08
2018-05-06T03:04:34.992Z,21.15
2018-05-06T03:09:38.230Z,22.52
2018-05-06T03:14:41.522Z,21.08
2018-05-06T03:19:45.282Z,24.80
2018-05-06T03:24:48.508Z,21.58
2018-05-06T03:29:52.187Z,22.35
2018-05-06T03:34:55.657Z,26.92
2018-05-06T03:39:59.475Z,20.98
2018-05-06T03:50:37.440Z,22.52
2018-05-06T03:55:42.069Z,21.40
2018-05-06T04:00:48.684Z,24.45
2018-05-06T04:05:51.975Z,22.13
2018-05-06T04:10:55.180Z,22.52
2018-05-06T04:15:58.813Z,25.23
2018-05-06T04:21:02.035Z,24.80
2018-05-06T04:26:05.391Z,24.40
2018-05-06T04:31:08.626Z,23.25
2018-05-06T04:36:11.905Z,22.62
2018-05-06T04:41:15.548Z,27.55
2018-05-06T04:46:18.792Z,26.27
2018-05-06T04:51:22.031Z,26.42
2018-05-06T04:56:25.655Z,25.92
2018-05-06T05:01:29.288Z,27.45
2018-05-06T05:06:33.045Z,24.42
2018-05-06T05:11:36.285Z,25.30
2018-05-06T05:16:39.523Z,23.25
2018-05-06T05:21:42.758Z,22.37
2018-05-06T05:26:46.086Z,26.50
2018-05-06T05:31:49.311Z,26.75
2018-05-06T05:36:52.552Z,26.10
2018-05-06T05:41:55.797Z,25.15
2018-05-06T05:46:59.132Z,24.80
2018-05-06T05:52:02.410Z,27.98
2018-05-06T05:57:05.647Z,25.75
2018-05-06T06:02:09.363Z,26.40
2018-05-06T06:07:13.035Z,25.73
2018-05-06T06:12:16.295Z,23.67
2018-05-06T06:17:19.950Z,21.33
2018-05-06T06:22:23.191Z,26.30
2018-05-06T06:27:26.415Z,26.55
2018-05-06T06:32:30.178Z,21.98
2018-05-06T06:37:33.516Z,22.73
2018-05-06T06:42:37.274Z,24.25
2018-05-06T06:47:40.936Z,25.55
2018-05-06T06:52:44.393Z,25.27
2018-05-06T06:57:48.076Z,21.87
2018-05-06T07:02:51.441Z,22.27
2018-05-06T07:07:54.861Z,27.90
2018-05-06T07:12:58.127Z,21.45
2018-05-06T07:18:01.782Z,21.70
2018-05-06T07:23:05.007Z,21.20
2018-05-06T07:28:08.272Z,24.95
2018-05-06T07:33:11.923Z,25.33
2018-05-06T07:38:15.906Z,24.23
2018-05-06T07:43:19.535Z,26.17
2018-05-06T07:48:22.776Z,21.45
2018-05-06T07:53:26.143Z,21.75
2018-05-06T07:58:29.433Z,24.10
2018-05-06T08:03:33.175Z,24.45
2018-05-06T08:08:36.420Z,22.35
2018-05-06T08:13:39.649Z,20.40
2018-05-06T08:18:42.899Z,24.12
2018-05-06T08:23:46.149Z,21.30
2018-05-06T08:28:49.817Z,20.83
2018-05-06T08:33:53.073Z,19.48
2018-05-06T08:38:56.344Z,19.55
2018-05-06T08:43:59.603Z,21.95
2018-05-06T08:49:03.251Z,17.12
2018-05-06T08:54:06.488Z,19.25
2018-05-06T08:59:09.707Z,17.05
2018-05-06T09:04:13.170Z,17.50
2018-05-06T09:09:16.399Z,17.30
2018-05-06T09:14:19.632Z,17.45
2018-05-06T09:19:22.869Z,17.10
2018-05-06T09:24:26.487Z,17.55
2018-05-06T09:29:30.113Z,19.17
2018-05-06T09:34:33.503Z,15.93
2018-05-06T09:39:36.812Z,17.00
2018-05-06T09:44:40.530Z,15.73
2018-05-06T09:49:44.164Z,16.90
2018-05-06T09:54:47.861Z,13.02
2018-05-06T09:59:51.490Z,14.20
2018-05-06T10:04:55.129Z,16.20
2018-05-06T10:09:58.356Z,15.98
2018-05-06T10:15:01.704Z,17.55
2018-05-06T10:20:05.326Z,16.70
2018-05-06T10:25:08.966Z,15.43
2018-05-06T10:30:12.344Z,17.52
2018-05-06T10:35:15.580Z,16.08
2018-05-06T10:40:18.806Z,16.85
2018-05-06T10:45:22.051Z,15.30
2018-05-06T10:50:25.316Z,17.42
2018-05-06T10:55:28.599Z,22.40
2018-05-06T11:00:32.206Z,22.10
2018-05-06T11:05:35.825Z,17.58
2018-05-06T11:10:39.459Z,17.60
2018-05-06T11:15:42.727Z,20.42
2018-05-06T11:20:46.651Z,18.77
2018-05-06T11:25:50.279Z,18.73
2018-05-06T11:30:54.013Z,17.02
2018-05-06T11:35:57.250Z,16.50
2018-05-06T11:41:00.608Z,16.60
2018-05-06T11:46:03.849Z,14.65
2018-05-06T11:51:07.071Z,14.07
2018-05-06T11:56:10.321Z,14.32
2018-05-06T12:01:14.033Z,14.82
2018-05-06T12:06:17.674Z,12.95
2018-05-06T12:11:21.055Z,17.00
2018-05-06T12:16:24.315Z,14.00
2018-05-06T12:21:27.581Z,12.80
2018-05-06T12:26:31.414Z,11.65
2018-05-06T12:31:34.807Z,12.13
2018-05-06T12:36:38.439Z,12.60
2018-05-06T12:41:41.737Z,10.88
2018-05-06T12:46:45.395Z,9.85
2018-05-06T12:51:48.627Z,12.27
2018-05-06T12:56:51.864Z,10.90
2018-05-06T13:01:55.668Z,11.65
2018-05-06T13:06:59.112Z,14.15
2018-05-06T13:12:02.373Z,12.70
2018-05-06T13:17:05.667Z,8.13
2018-05-06T13:22:09.001Z,8.43
2018-05-06T13:27:12.662Z,11.02
2018-05-06T13:32:15.956Z,6.97
2018-05-06T13:37:19.191Z,9.60
2018-05-06T13:42:22.424Z,9.90
2018-05-06T13:47:25.655Z,10.57
2018-05-06T13:52:29.272Z,10.77
2018-05-06T13:57:32.932Z,13.70
2018-05-06T14:02:36.174Z,7.70
2018-05-06T14:07:39.485Z,8.48
2018-05-06T14:12:42.797Z,6.37
2018-05-06T14:17:46.449Z,6.00
2018-05-06T14:22:49.721Z,9.90
2018-05-06T14:27:53.378Z,5.65
2018-05-06T14:32:56.630Z,6.37
2018-05-06T14:38:00.324Z,4.22
2018-05-06T14:43:03.543Z,4.30
2018-05-06T14:48:15.711Z,7.85
2018-05-06T14:53:18.951Z,4.75
2018-05-06T14:58:22.181Z,6.97
2018-05-06T15:03:25.463Z,5.72
2018-05-06T15:08:28.703Z,5.90
2018-05-06T15:13:32.313Z,11.18
2018-05-06T15:18:35.591Z,3.72
2018-05-06T15:23:39.685Z,6.82
2018-05-06T15:28:42.944Z,4.18
2018-05-06T15:33:46.600Z,5.28
2018-05-06T15:38:50.490Z,4.85
2018-05-06T15:43:54.135Z,9.85
2018-05-06T15:48:57.344Z,3.92
2018-05-06T15:54:00.601Z,3.50
2018-05-06T15:59:03.850Z,8.50
2018-05-06T16:04:13.392Z,9.15
2018-05-06T16:09:16.610Z,3.80
2018-05-06T16:14:19.960Z,3.35
2018-05-06T16:19:23.271Z,5.10
2018-05-06T16:24:26.639Z,4.95
2018-05-06T16:29:29.860Z,5.43
2018-05-06T16:34:33.125Z,5.20
2018-05-06T16:39:36.390Z,3.22
2018-05-06T16:44:39.628Z,6.40
2018-05-06T16:49:42.900Z,3.60
2018-05-06T16:54:46.137Z,4.97
2018-05-06T16:59:49.380Z,4.55
2018-05-06T17:04:52.619Z,4.50
2018-05-06T17:09:56.274Z,4.55
2018-05-06T17:14:59.482Z,7.15
2018-05-06T17:20:12.303Z,5.87
2018-05-06T17:25:15.531Z,2.85
2018-05-06T17:30:18.747Z,5.12
2018-05-06T17:35:22.093Z,3.78
2018-05-06T17:40:26.366Z,3.72
2018-05-06T17:45:29.670Z,4.18
2018-05-06T17:50:32.885Z,5.53
2018-05-06T17:55:36.333Z,3.53
2018-05-06T18:00:39.583Z,3.30
2018-05-06T18:05:42.861Z,4.00
2018-05-06T18:10:46.485Z,5.57
2018-05-06T18:15:49.712Z,4.28
2018-05-06T18:20:53.884Z,3.75
2018-05-06T18:31:29.076Z,3.45
2018-05-06T18:36:33.174Z,6.47
2018-05-06T18:41:36.406Z,5.95
2018-05-06T18:46:40.043Z,6.20
2018-05-06T18:51:43.400Z,4.70
2018-05-06T18:56:46.619Z,2.92
2018-05-06T19:01:49.845Z,3.22
2018-05-06T19:06:53.622Z,5.80
2018-05-06T19:11:57.103Z,2.60
2018-05-06T19:17:00.584Z,5.10
2018-05-06T19:22:04.410Z,3.53
2018-05-06T19:27:09.951Z,2.33
2018-05-06T19:32:13.525Z,2.58
2018-05-06T19:37:17.007Z,7.07
2018-05-06T19:42:20.299Z,3.83
2018-05-06T19:47:23.611Z,2.75
2018-05-06T19:52:27.256Z,2.35
2018-05-06T19:57:30.671Z,4.47
2018-05-06T20:02:34.133Z,3.90
2018-05-06T20:07:37.761Z,3.62
2018-05-06T20:12:41.398Z,2.83
2018-05-06T20:17:44.670Z,3.45
2018-05-06T20:22:48.182Z,3.85
2018-05-06T20:27:51.871Z,3.45
2018-05-06T20:32:55.214Z,3.55
2018-05-06T20:37:59.026Z,2.25
2018-05-06T20:43:05.464Z,3.47
2018-05-06T20:48:10.409Z,4.75
2018-05-06T20:53:13.605Z,2.37
2018-05-06T20:58:16.825Z,2.17
2018-05-06T21:03:20.110Z,1.98
2018-05-06T21:08:23.401Z,2.03
2018-05-06T21:13:26.588Z,3.90
2018-05-06T21:18:29.916Z,1.87
2018-05-06T21:23:33.116Z,3.12
2018-05-06T21:28:36.336Z,1.77
2018-05-06T21:33:39.913Z,4.87
2018-05-06T21:38:43.090Z,1.67
2018-05-06T21:43:46.290Z,2.95
2018-05-06T21:48:49.484Z,3.28
2018-05-06T21:53:52.729Z,2.55
2018-05-06T21:58:55.942Z,2.08
2018-05-06T22:03:59.596Z,1.80
2018-05-06T22:09:02.825Z,5.47
2018-05-06T22:14:06.068Z,3.30
2018-05-06T22:19:09.646Z,3.45
2018-05-06T22:24:14.650Z,2.40
2018-05-06T22:29:17.875Z,2.72
2018-05-06T22:34:21.083Z,3.30
2018-05-06T22:39:24.252Z,2.30
2018-05-06T22:44:27.433Z,4.35
2018-05-06T22:49:30.607Z,2.03
2018-05-06T22:54:33.794Z,2.62
2018-05-06T22:59:37.097Z,1.80
2018-05-06T23:04:40.631Z,1.83
2018-05-06T23:09:44.327Z,1.98
2018-05-06T23:14:47.572Z,4.15
2018-05-06T23:19:50.779Z,2.47
2018-05-06T23:24:54.216Z,2.10
2018-05-06T23:29:57.922Z,2.90
2018-05-06T23:35:01.447Z,2.28
2018-05-06T23:40:06.154Z,3.12
2018-05-06T23:45:09.490Z,2.25
2018-05-06T23:50:12.690Z,1.60
2018-05-06T23:55:18.659Z,2.12
